Smoketown, PA (17576)

10:09 PM EST on February 09, 2016 (GMT -0500)
Paradise | | Change Station
CLOSE
Current Station
Personal Weather Station
Location: Paradise, PA
Elevation: 365 ft
Nearby Weather Stations

Elev 365 ft 40.01 °N, 76.14 °W | Updated 48 seconds ago

Snow
Snow
30.1 °F
Feels Like 30 °F
N
0.0
Wind Variable Wind from NW
Gusts 0.0 mph

Today
High -- | Low -- °F
--% Chance of Precip.
Yesterday
High -- | Low -- °F
Precip. -- in
Pressure 29.63 in
Visibility 2.0 miles
Clouds Mostly Cloudy 500 ft
Overcast 1300 ft
Windchill 30 °F
Dew Point 29 °F
Humidity 96%
Rainfall 0.15 in
Snow Depth Not available.
7:05 AM 5:32 PM
Waxing Crescent, 3% visible
METAR KLNS 100253Z AUTO 27009KT 2SM -SN BR BKN005 OVC013 M01/M01 A2962 RMK AO2 CIG 004V009 SLP033 P0001 60002 T10061011 53004
Pressure 29.63 in
Visibility 2.0 miles
Clouds Mostly Cloudy 500 ft
Overcast 1300 ft
Windchill 30 °F
Dew Point 29 °F
Humidity 96%
Rainfall 0.15 in
Snow Depth Not available.
7:05 AM 5:32 PM
Waxing Crescent, 3% visible
METAR KLNS 100253Z AUTO 27009KT 2SM -SN BR BKN005 OVC013 M01/M01 A2962 RMK AO2 CIG 004V009 SLP033 P0001 60002 T10061011 53004
Winter Storm Nacio, the third winter storm in five days to affect the Northeast, is bringing pockets of locally heavy snow to parts of the Ohio Valley, Appalachians and mid-Atlantic states Tuesday. Winter storm warnings are posted for parts of southern Pennsylvania, southern Ohio and the higher peaks of the Appalachians. Winter weather advisories, generally for lighter snow accumulations, stretch from northeast Alabama and far north Georgia to southern Connecticut and Long Island.

10-Day Weather Forecast

Almanac

Astronomy

Feb. 09, 2016 Rise Set
Actual Time
Civil Twilight
Nautical Twilight
Astronomical Twilight
Moon
Length of Visible Light
Length of Day
Tomorrow will be .
, % of the Moon is Illuminated

Today's Extremes

State Highs State Lows

Community

WunderPhotos

Upload Photos

1,891,787 photos uploaded!

WunderBlog® & News

Nearby

Air Quality

  Air Quality AQ Index Pollutant
Not available.

Snow Depth

Station Depth Elevation

Earthquake Activity

City Distance Mag. Time & Date
Minimum magnitude displayed is 2.5.

Coastal Water Temperatures

Place Temperature

Stations

Nearby Weather Stations

Station Location Temp. Windchill Dew Point Humidity Wind Precip. Elev Updated Type
                   

Watches & Warnings

There are currently no watches in effect.